createdAt,value
2018-07-28T00:01:44.397Z,100569.92
2018-07-28T00:04:13.146Z,100571.01
2018-07-28T00:06:42.301Z,100569.08
2018-07-28T00:09:12.429Z,100566.38
2018-07-28T00:11:41.259Z,100566.50
2018-07-28T00:14:10.353Z,100565.58
2018-07-28T00:16:39.521Z,100560.59
2018-07-28T00:19:10.352Z,100565.81
2018-07-28T00:21:39.178Z,100558.59
2018-07-28T00:24:08.661Z,100553.45
2018-07-28T00:26:38.579Z,100556.27
2018-07-28T00:29:08.400Z,100549.32
2018-07-28T00:31:38.569Z,100546.16
2018-07-28T00:34:09.558Z,100548.98
2018-07-28T00:36:44.849Z,100548.99
2018-07-28T00:39:14.859Z,100540.70
2018-07-28T00:41:44.167Z,100539.02
2018-07-28T00:44:13.247Z,100537.89
2018-07-28T00:46:41.957Z,100534.02
2018-07-28T00:49:11.054Z,100534.59
2018-07-28T00:51:39.782Z,100526.66
2018-07-28T00:54:08.619Z,100529.27
2018-07-28T00:56:37.415Z,100532.47
2018-07-28T00:59:06.831Z,100526.98
2018-07-28T01:01:35.617Z,100526.45
2018-07-28T01:04:04.508Z,100534.17
2018-07-28T01:06:33.315Z,100526.48
2018-07-28T01:09:02.151Z,100522.35
2018-07-28T01:11:31.002Z,100519.64
2018-07-28T01:14:00.957Z,100516.47
2018-07-28T01:16:29.968Z,100518.09
2018-07-28T01:18:58.992Z,100518.73
2018-07-28T01:21:28.134Z,100511.81
2018-07-28T01:23:57.134Z,100505.52
2018-07-28T01:26:26.075Z,100501.97
2018-07-28T01:29:00.208Z,100498.00
2018-07-28T01:31:29.362Z,100490.73
2018-07-28T01:33:58.274Z,100484.82
2018-07-28T01:36:28.022Z,100489.17
2018-07-28T01:38:56.807Z,100482.46
2018-07-28T01:41:25.519Z,100475.00
2018-07-28T01:43:54.303Z,100471.25
2018-07-28T01:46:23.450Z,100468.09
2018-07-28T01:48:52.852Z,100476.64
2018-07-28T01:51:22.299Z,100468.37
2018-07-28T01:53:51.351Z,100468.17
2018-07-28T01:56:20.508Z,100461.27
2018-07-28T01:58:49.945Z,100461.68
2018-07-28T02:01:18.857Z,100462.93
2018-07-28T02:03:48.141Z,100448.87
2018-07-28T02:06:17.941Z,100445.34
2018-07-28T02:08:47.085Z,100449.72
2018-07-28T02:11:16.392Z,100441.20
2018-07-28T02:13:46.285Z,100437.23
2018-07-28T02:16:15.038Z,100431.55
2018-07-28T02:18:43.931Z,100433.37
2018-07-28T02:21:13.288Z,100420.90
2018-07-28T02:23:42.214Z,100421.17
2018-07-28T02:26:11.722Z,100409.50
2018-07-28T02:28:40.707Z,100400.21
2018-07-28T02:31:09.416Z,100400.34
2018-07-28T02:33:38.489Z,100396.17
2018-07-28T02:36:07.527Z,100385.30
2018-07-28T02:38:36.265Z,100380.17
2018-07-28T02:41:05.038Z,100381.36
2018-07-28T02:43:34.318Z,100379.78
2018-07-28T02:46:03.090Z,100372.84
2018-07-28T02:48:31.810Z,100365.70
2018-07-28T02:51:00.773Z,100360.56
2018-07-28T02:53:29.515Z,100359.41
2018-07-28T02:55:58.618Z,100356.23
2018-07-28T02:58:27.551Z,100355.25
2018-07-28T03:00:56.954Z,100350.45
2018-07-28T03:03:26.067Z,100351.23
2018-07-28T03:05:58.465Z,100346.29
2018-07-28T03:08:27.428Z,100351.06
2018-07-28T03:10:56.429Z,100354.41
2018-07-28T03:13:25.290Z,100350.64
2018-07-28T03:15:54.183Z,100354.00
2018-07-28T03:18:24.107Z,100351.28
2018-07-28T03:20:52.935Z,100352.28
2018-07-28T03:23:21.846Z,100365.95
2018-07-28T03:25:50.597Z,100371.55
2018-07-28T03:28:20.240Z,100359.43
2018-07-28T03:30:49.091Z,100354.85
2018-07-28T03:33:17.894Z,100344.41
2018-07-28T03:35:47.071Z,100348.84
2018-07-28T03:38:15.922Z,100349.64
2018-07-28T03:40:44.707Z,100340.36
2018-07-28T03:43:14.050Z,100340.98
2018-07-28T03:45:42.854Z,100338.63
2018-07-28T03:48:11.688Z,100342.04
2018-07-28T03:50:40.385Z,100338.49
2018-07-28T03:53:10.246Z,100341.84
2018-07-28T03:55:39.077Z,100333.17
2018-07-28T03:58:08.191Z,100331.95
2018-07-28T04:00:37.222Z,100332.17
2018-07-28T04:03:06.293Z,100334.60
2018-07-28T04:05:35.210Z,100332.84
2018-07-28T04:08:03.938Z,100326.14
2018-07-28T04:10:32.856Z,100325.75
2018-07-28T04:13:02.358Z,100326.16
2018-07-28T04:15:31.105Z,100317.44
2018-07-28T04:17:59.789Z,100310.17
2018-07-28T04:20:29.123Z,100308.03
2018-07-28T04:22:58.428Z,100296.77
2018-07-28T04:25:27.190Z,100294.59
2018-07-28T04:27:56.004Z,100298.00
2018-07-28T04:30:25.478Z,100299.62
2018-07-28T04:32:54.544Z,100301.03
2018-07-28T04:35:23.348Z,100293.13
2018-07-28T04:37:52.046Z,100289.73
2018-07-28T04:40:21.099Z,100294.50
2018-07-28T04:42:50.163Z,100293.51
2018-07-28T04:45:18.962Z,100325.72
2018-07-28T04:47:47.680Z,100350.20
2018-07-28T04:50:16.401Z,100351.74
2018-07-28T04:52:45.280Z,100345.19
2018-07-28T04:55:14.545Z,100339.00
2018-07-28T04:57:43.604Z,100359.95
2018-07-28T05:00:12.686Z,100354.00
2018-07-28T05:02:41.667Z,100350.40
2018-07-28T05:05:10.675Z,100345.80
2018-07-28T05:07:39.908Z,100333.09
2018-07-28T05:10:08.929Z,100357.79
2018-07-28T05:12:37.954Z,100340.94
2018-07-28T05:15:07.723Z,100320.30
2018-07-28T05:17:36.674Z,100356.88
2018-07-28T05:20:05.749Z,100374.88
2018-07-28T05:22:35.137Z,100351.83
2018-07-28T05:25:04.287Z,100353.16
2018-07-28T05:27:33.290Z,100358.66
2018-07-28T05:30:02.275Z,100334.86
2018-07-28T05:32:31.573Z,100343.15
2018-07-28T05:35:00.578Z,100346.86
2018-07-28T05:37:29.844Z,100313.09
2018-07-28T05:39:58.943Z,100336.03
2018-07-28T05:42:28.272Z,100335.80
2018-07-28T05:44:56.955Z,100300.09
2018-07-28T05:47:25.672Z,100313.16
2018-07-28T05:49:54.701Z,100299.90
2018-07-28T05:52:24.410Z,100295.31
2018-07-28T05:54:53.635Z,100309.19
2018-07-28T05:57:22.712Z,100327.41
2018-07-28T05:59:51.425Z,100315.58
2018-07-28T06:02:20.268Z,100323.32
2018-07-28T06:04:49.525Z,100306.52
2018-07-28T06:07:18.609Z,100324.77
2018-07-28T06:09:47.336Z,100330.16
2018-07-28T06:12:16.687Z,100315.73
2018-07-28T06:14:45.445Z,100310.77
2018-07-28T06:17:14.176Z,100307.00
2018-07-28T06:19:43.246Z,100298.65
2018-07-28T06:22:12.196Z,100290.33
2018-07-28T06:24:40.896Z,100293.03
2018-07-28T06:27:09.664Z,100290.23
2018-07-28T06:29:38.584Z,100286.99
2018-07-28T06:32:08.825Z,100291.05
2018-07-28T06:34:37.674Z,100287.04
2018-07-28T06:37:06.498Z,100277.80
2018-07-28T06:39:35.589Z,100279.25
2018-07-28T06:42:04.967Z,100285.81
2018-07-28T06:44:34.319Z,100275.72
2018-07-28T06:47:03.142Z,100278.86
2018-07-28T06:49:32.237Z,100278.45
2018-07-28T06:52:01.647Z,100275.44
2018-07-28T06:54:32.668Z,100268.81
2018-07-28T06:57:01.777Z,100276.56
2018-07-28T06:59:31.448Z,100279.09
2018-07-28T07:02:02.710Z,100291.95
2018-07-28T07:04:31.608Z,100300.10
2018-07-28T07:07:02.544Z,100284.61
2018-07-28T07:09:31.736Z,100282.38
2018-07-28T07:12:01.773Z,100281.30
2018-07-28T07:14:30.590Z,100283.46
2018-07-28T07:16:59.540Z,100286.58
2018-07-28T07:19:28.740Z,100274.19
2018-07-28T07:21:57.541Z,100257.27
2018-07-28T07:24:26.587Z,100249.25
2018-07-28T07:26:55.311Z,100248.16
2018-07-28T07:29:24.104Z,100252.84
2018-07-28T07:31:52.819Z,100246.98
2018-07-28T07:34:21.566Z,100243.68
2018-07-28T07:36:50.336Z,100256.83
2018-07-28T07:39:19.082Z,100314.45
2018-07-28T07:41:47.875Z,100336.37
2018-07-28T07:44:16.907Z,100310.55
2018-07-28T07:46:46.183Z,100303.90
2018-07-28T07:49:14.968Z,100318.19
2018-07-28T07:51:44.034Z,100339.77
2018-07-28T07:54:13.039Z,100330.74
2018-07-28T07:56:41.986Z,100324.54
2018-07-28T07:59:10.780Z,100334.96
2018-07-28T08:01:39.795Z,100328.33
2018-07-28T08:04:08.755Z,100317.17
2018-07-28T08:06:37.887Z,100324.73
2018-07-28T08:09:09.050Z,100333.81
2018-07-28T08:11:38.077Z,100343.36
2018-07-28T08:14:06.778Z,100340.67
2018-07-28T08:16:35.454Z,100353.08
2018-07-28T08:19:04.628Z,100348.13
2018-07-28T08:21:33.364Z,100341.13
2018-07-28T08:24:02.650Z,100359.52
2018-07-28T08:26:31.983Z,100369.83
2018-07-28T08:29:00.734Z,100374.88
2018-07-28T08:31:29.777Z,100374.52
2018-07-28T08:33:58.542Z,100378.70
2018-07-28T08:36:33.915Z,100376.57
2018-07-28T08:39:02.624Z,100380.83
2018-07-28T08:41:31.544Z,100386.36
2018-07-28T08:44:00.721Z,100388.05
2018-07-28T08:46:29.920Z,100391.39
2018-07-28T08:48:59.207Z,100404.70
2018-07-28T08:51:27.885Z,100393.25
2018-07-28T08:53:56.590Z,100405.94
2018-07-28T08:56:25.817Z,100399.73
2018-07-28T08:58:54.523Z,100397.82
2018-07-28T09:01:26.481Z,100392.34
2018-07-28T09:03:55.265Z,100386.78
2018-07-28T09:06:24.460Z,100370.56
2018-07-28T09:08:53.365Z,100363.24
2018-07-28T09:11:22.403Z,100361.20
2018-07-28T09:13:51.121Z,100369.11
2018-07-28T09:16:19.824Z,100370.58
2018-07-28T09:18:48.933Z,100379.02
2018-07-28T09:21:17.870Z,100382.16
2018-07-28T09:23:46.586Z,100383.84
2018-07-28T09:26:15.647Z,100383.39
2018-07-28T09:28:44.832Z,100387.85
2018-07-28T09:31:13.858Z,100378.16
2018-07-28T09:33:42.574Z,100379.07
2018-07-28T09:36:11.309Z,100379.80
2018-07-28T09:38:40.581Z,100377.27
2018-07-28T09:41:09.312Z,100376.37
2018-07-28T09:43:38.351Z,100380.33
2018-07-28T09:46:07.899Z,100376.17
2018-07-28T09:48:36.635Z,100377.60
2018-07-28T09:51:05.993Z,100377.78
2018-07-28T09:53:34.926Z,100377.36
2018-07-28T09:56:03.628Z,100389.05
2018-07-28T09:58:32.686Z,100403.02
2018-07-28T10:01:21.975Z,100408.09
2018-07-28T10:03:50.838Z,100412.89
2018-07-28T10:06:19.677Z,100417.77
2018-07-28T10:08:48.627Z,100419.84
2018-07-28T10:11:17.387Z,100419.47
2018-07-28T10:13:46.375Z,100416.77
2018-07-28T10:16:15.818Z,100423.06
2018-07-28T10:18:44.590Z,100443.63
2018-07-28T10:21:13.263Z,100446.72
2018-07-28T10:23:42.380Z,100446.44
2018-07-28T10:26:11.521Z,100432.98
2018-07-28T10:28:40.253Z,100438.31
2018-07-28T10:31:08.969Z,100431.08
2018-07-28T10:33:37.672Z,100441.16
2018-07-28T10:36:07.137Z,100448.52
2018-07-28T10:38:35.864Z,100450.50
2018-07-28T10:41:05.363Z,100458.77
2018-07-28T10:43:34.396Z,100455.43
2018-07-28T10:46:03.540Z,100454.47
2018-07-28T10:48:32.232Z,100463.00
2018-07-28T10:51:01.333Z,100476.49
2018-07-28T10:53:31.011Z,100481.80
2018-07-28T10:56:00.155Z,100490.48
2018-07-28T10:58:29.209Z,100497.88
2018-07-28T11:00:58.364Z,100497.83
2018-07-28T11:03:27.113Z,100501.55
2018-07-28T11:05:55.830Z,100506.47
2018-07-28T11:08:24.593Z,100507.30
2018-07-28T11:10:53.324Z,100518.63
2018-07-28T11:13:22.051Z,100529.67
2018-07-28T11:15:50.787Z,100533.60
2018-07-28T11:18:19.582Z,100547.77
2018-07-28T11:20:48.601Z,100559.03
2018-07-28T11:23:28.249Z,100578.88
2018-07-28T11:25:57.224Z,100585.65
2018-07-28T11:28:25.940Z,100578.69
2018-07-28T11:30:54.643Z,100595.03
2018-07-28T11:33:35.238Z,100596.77
2018-07-28T11:36:14.885Z,100590.33
2018-07-28T11:40:56.647Z,100596.36
2018-07-28T11:44:35.870Z,100595.70
2018-07-28T11:47:04.940Z,100597.55
2018-07-28T11:49:33.641Z,100605.28
2018-07-28T11:52:02.403Z,100608.95
2018-07-28T11:54:31.129Z,100602.97
2018-07-28T11:56:59.963Z,100603.27
2018-07-28T11:59:29.028Z,100608.55
2018-07-28T12:01:57.823Z,100610.91
2018-07-28T12:04:26.809Z,100610.99
2018-07-28T12:06:55.680Z,100612.08
2018-07-28T12:09:24.399Z,100614.94
2018-07-28T12:11:53.111Z,100610.22
2018-07-28T12:14:22.313Z,100615.36
2018-07-28T12:16:51.357Z,100605.73
2018-07-28T12:19:20.323Z,100598.64
2018-07-28T12:21:49.051Z,100594.42
2018-07-28T12:24:17.771Z,100596.89
2018-07-28T12:26:46.917Z,100593.45
2018-07-28T12:29:15.630Z,100586.19
2018-07-28T12:31:44.688Z,100585.70
2018-07-28T12:34:13.400Z,100584.12
2018-07-28T12:36:42.132Z,100584.91
2018-07-28T12:39:12.085Z,100574.41
2018-07-28T12:41:41.105Z,100565.04
2018-07-28T12:44:10.113Z,100555.78
2018-07-28T12:46:38.863Z,100562.41
2018-07-28T12:49:07.907Z,100539.48
2018-07-28T12:51:43.387Z,100542.02
2018-07-28T12:54:12.135Z,100536.59
2018-07-28T12:56:40.913Z,100545.87
2018-07-28T12:59:09.629Z,100536.88
2018-07-28T13:01:38.813Z,100541.22
2018-07-28T13:04:08.260Z,100543.98
2018-07-28T13:06:36.979Z,100538.13
2018-07-28T13:09:08.518Z,100542.91
2018-07-28T13:11:37.572Z,100545.92
2018-07-28T13:14:06.257Z,100538.76
2018-07-28T13:16:35.208Z,100542.07
2018-07-28T13:19:04.254Z,100535.81
2018-07-28T13:21:33.330Z,100532.97
2018-07-28T13:24:02.272Z,100531.68
2018-07-28T13:26:31.053Z,100521.77
2018-07-28T13:28:59.787Z,100521.17
2018-07-28T13:31:29.125Z,100519.44
2018-07-28T13:33:58.145Z,100513.08
2018-07-28T13:36:27.526Z,100512.55
2018-07-28T13:38:56.762Z,100512.64
2018-07-28T13:41:25.713Z,100509.58
2018-07-28T13:43:54.661Z,100516.70
2018-07-28T13:46:23.696Z,100521.95
2018-07-28T13:48:52.387Z,100515.39
2018-07-28T13:51:21.144Z,100529.13
2018-07-28T13:53:50.393Z,100533.47
2018-07-28T13:56:19.416Z,100529.66
2018-07-28T13:58:48.932Z,100527.51
2018-07-28T14:01:17.665Z,100525.84
2018-07-28T14:03:46.402Z,100518.22
2018-07-28T14:06:15.859Z,100526.00
2018-07-28T14:08:44.953Z,100538.36
2018-07-28T14:11:14.012Z,100538.86
2018-07-28T14:13:42.786Z,100535.63
2018-07-28T14:16:11.514Z,100544.67
2018-07-28T14:18:40.532Z,100540.91
2018-07-28T14:21:09.261Z,100547.02
2018-07-28T14:23:37.971Z,100549.06
2018-07-28T14:26:06.797Z,100545.45
2018-07-28T14:28:35.838Z,100545.32
2018-07-28T14:31:04.554Z,100544.18
2018-07-28T14:33:33.331Z,100556.63
2018-07-28T14:36:02.075Z,100562.78
2018-07-28T14:38:31.068Z,100619.92
2018-07-28T14:41:00.095Z,100674.09
2018-07-28T14:43:29.095Z,100670.67
2018-07-28T14:45:57.814Z,100676.41
2018-07-28T14:48:26.938Z,100675.35
2018-07-28T14:50:56.131Z,100674.84
2018-07-28T14:53:25.385Z,100671.52
2018-07-28T14:55:54.562Z,100672.52
2018-07-28T14:58:23.802Z,100662.78
2018-07-28T15:00:52.527Z,100657.37
2018-07-28T15:03:21.296Z,100639.31
2018-07-28T15:05:50.009Z,100643.87
2018-07-28T15:08:19.748Z,100676.52
2018-07-28T15:10:48.436Z,100685.86
2018-07-28T15:13:17.133Z,100698.53
2018-07-28T15:15:45.875Z,100691.20
2018-07-28T15:18:14.878Z,100705.67
2018-07-28T15:20:44.181Z,100721.75
2018-07-28T15:23:12.910Z,100718.01
2018-07-28T15:25:41.695Z,100723.36
2018-07-28T15:28:16.845Z,100715.84
2018-07-28T15:30:45.622Z,100716.44
2018-07-28T15:33:14.337Z,100709.69
2018-07-28T15:35:43.370Z,100705.77
2018-07-28T15:38:12.430Z,100718.98
2018-07-28T15:40:41.775Z,100734.81
2018-07-28T15:43:10.774Z,100748.84
2018-07-28T15:45:40.436Z,100766.66
2018-07-28T15:48:09.850Z,100777.54
2018-07-28T15:50:38.552Z,100771.99
2018-07-28T15:53:07.642Z,100771.40
2018-07-28T15:55:36.677Z,100774.55
2018-07-28T15:58:05.734Z,100777.09
2018-07-28T16:00:34.478Z,100788.80
2018-07-28T16:03:03.797Z,100789.78
2018-07-28T16:05:32.788Z,100779.10
2018-07-28T16:08:01.901Z,100780.25
2018-07-28T16:10:31.346Z,100780.45
2018-07-28T16:13:00.413Z,100777.72
2018-07-28T16:15:29.366Z,100780.85
2018-07-28T16:17:58.594Z,100775.91
2018-07-28T16:20:27.310Z,100767.02
2018-07-28T16:22:56.015Z,100769.20
2018-07-28T16:25:25.117Z,100768.22
2018-07-28T16:27:54.174Z,100763.28
2018-07-28T16:30:22.973Z,100765.47
2018-07-28T16:32:52.016Z,100758.53
2018-07-28T16:35:21.496Z,100763.90
2018-07-28T16:37:50.558Z,100763.48
2018-07-28T16:40:19.344Z,100762.30
2018-07-28T16:42:48.346Z,100768.84
2018-07-28T16:45:17.606Z,100770.03
2018-07-28T16:47:46.303Z,100768.26
2018-07-28T16:50:15.040Z,100773.78
2018-07-28T16:52:44.342Z,100771.59
2018-07-28T16:55:13.475Z,100774.76
2018-07-28T16:57:42.635Z,100781.28
2018-07-28T17:00:11.426Z,100785.41
2018-07-28T17:02:41.015Z,100789.94
2018-07-28T17:05:10.117Z,100792.10
2018-07-28T17:07:39.090Z,100803.97
2018-07-28T17:10:08.237Z,100806.55
2018-07-28T17:12:37.001Z,100816.83
2018-07-28T17:15:06.789Z,100820.77
2018-07-28T17:17:35.826Z,100819.19
2018-07-28T17:20:05.329Z,100819.17
2018-07-28T17:22:34.075Z,100825.12
2018-07-28T17:25:03.448Z,100826.08
2018-07-28T17:27:32.362Z,100828.27
2018-07-28T17:30:01.067Z,100831.41
2018-07-28T17:32:29.938Z,100832.81
2018-07-28T17:34:59.435Z,100842.33
2018-07-28T17:37:28.259Z,100852.20
2018-07-28T17:39:57.021Z,100855.56
2018-07-28T17:42:26.037Z,100863.08
2018-07-28T17:44:55.464Z,100860.50
2018-07-28T17:47:24.386Z,100861.08
2018-07-28T17:49:53.170Z,100865.03
2018-07-28T17:52:22.139Z,100865.23
2018-07-28T17:54:50.955Z,100862.80
2018-07-28T17:57:20.021Z,100866.37
2018-07-28T17:59:48.998Z,100862.83
2018-07-28T18:02:17.738Z,100858.67
2018-07-28T18:04:46.497Z,100866.36
2018-07-28T18:07:15.206Z,100874.03
2018-07-28T18:09:44.273Z,100879.36
2018-07-28T18:12:13.491Z,100888.47
2018-07-28T18:14:42.215Z,100888.07
2018-07-28T18:17:11.177Z,100883.53
2018-07-28T18:19:39.982Z,100888.47
2018-07-28T18:22:08.738Z,100894.16
2018-07-28T18:24:37.519Z,100901.05
2018-07-28T18:27:06.655Z,100902.41
2018-07-28T18:29:35.390Z,100907.88
2018-07-28T18:32:04.093Z,100922.06
2018-07-28T18:34:33.588Z,100929.91
2018-07-28T18:37:08.782Z,100938.95
2018-07-28T18:39:37.782Z,100947.59
2018-07-28T18:42:06.783Z,100944.02
2018-07-28T18:44:41.821Z,100942.81
2018-07-28T18:47:10.538Z,100943.73
2018-07-28T18:49:39.227Z,100940.72
2018-07-28T18:52:08.701Z,100937.30
2018-07-28T18:54:37.394Z,100943.18
2018-07-28T18:57:06.488Z,100938.00
2018-07-28T18:59:36.282Z,100936.35
2018-07-28T19:02:05.611Z,100942.01
2018-07-28T19:04:34.409Z,100941.93
2018-07-28T19:07:03.198Z,100944.64
2018-07-28T19:09:51.638Z,100945.10
2018-07-28T19:12:25.936Z,100946.98
2018-07-28T19:14:54.655Z,100955.19
2018-07-28T19:17:26.571Z,100974.16
2018-07-28T19:19:55.667Z,100976.41
2018-07-28T19:22:29.948Z,100980.16
2018-07-28T19:24:59.051Z,100984.88
2018-07-28T19:27:27.747Z,100987.80
2018-07-28T19:29:57.050Z,100992.00
2018-07-28T19:34:53.443Z,101006.01
2018-07-28T19:37:24.945Z,101010.95
2018-07-28T19:39:56.628Z,101016.13
2018-07-28T19:42:32.800Z,101021.38
2018-07-28T19:45:02.852Z,101033.06
2018-07-28T19:47:31.810Z,101025.88
2018-07-28T19:50:02.814Z,101026.92
2018-07-28T19:52:33.492Z,101026.70
2018-07-28T19:55:04.780Z,101036.30
2018-07-28T19:57:36.243Z,101031.57
2018-07-28T20:00:05.993Z,101038.45
2018-07-28T20:02:35.877Z,101041.80
2018-07-28T20:05:05.806Z,101050.91
2018-07-28T20:07:35.918Z,101051.88
2018-07-28T20:10:07.127Z,101050.87
2018-07-28T20:12:35.969Z,101059.12
2018-07-28T20:15:05.087Z,101066.20
2018-07-28T20:17:34.312Z,101064.63
2018-07-28T20:20:03.059Z,101068.95
2018-07-28T20:22:32.056Z,101072.30
2018-07-28T20:25:01.175Z,101080.84
2018-07-28T20:27:29.948Z,101079.56
2018-07-28T20:29:58.742Z,101081.93
2018-07-28T20:32:30.004Z,101089.09
2018-07-28T20:34:58.854Z,101096.62
2018-07-28T20:37:27.611Z,101096.57
2018-07-28T20:39:57.497Z,101093.98
2018-07-28T20:42:26.420Z,101100.27
2018-07-28T20:44:55.567Z,101102.92
2018-07-28T20:47:25.447Z,101101.77
2018-07-28T20:49:54.658Z,101099.79
2018-07-28T20:52:24.458Z,101102.94
2018-07-28T20:54:53.327Z,101108.71
2018-07-28T20:57:22.267Z,101111.50
2018-07-28T20:59:51.019Z,101116.99
2018-07-28T21:02:19.789Z,101118.73
2018-07-28T21:04:48.555Z,101125.08
2018-07-28T21:07:17.577Z,101123.84
2018-07-28T21:09:46.735Z,101128.87
2018-07-28T21:12:15.699Z,101134.99
2018-07-28T21:14:44.734Z,101136.30
2018-07-28T21:17:13.929Z,101130.22
2018-07-28T21:19:42.809Z,101132.66
2018-07-28T21:22:12.655Z,101133.52
2018-07-28T21:24:41.611Z,101136.16
2018-07-28T21:27:17.392Z,101138.24
2018-07-28T21:29:46.630Z,101138.14
2018-07-28T21:32:16.101Z,101136.23
2018-07-28T21:34:46.245Z,101131.68
2018-07-28T21:37:15.637Z,101136.77
2018-07-28T21:39:44.910Z,101137.23
2018-07-28T21:42:14.044Z,101137.48
2018-07-28T21:44:43.140Z,101143.03
2018-07-28T21:47:12.043Z,101140.53
2018-07-28T21:49:40.884Z,101140.55
2018-07-28T21:52:09.662Z,101143.53
2018-07-28T21:54:38.373Z,101140.70
2018-07-28T21:57:07.440Z,101138.64
2018-07-28T21:59:36.815Z,101148.16
2018-07-28T22:02:05.659Z,101148.02
2018-07-28T22:04:36.684Z,101149.86
2018-07-28T22:07:05.504Z,101155.11
2018-07-28T22:09:34.514Z,101156.25
2018-07-28T22:12:04.356Z,101156.02
2018-07-28T22:14:33.371Z,101168.52
2018-07-28T22:17:02.486Z,101168.95
2018-07-28T22:19:31.866Z,101162.80
2018-07-28T22:22:00.987Z,101167.38
2018-07-28T22:24:29.807Z,101171.38
2018-07-28T22:26:58.518Z,101180.66
2018-07-28T22:29:27.381Z,101182.84
2018-07-28T22:31:56.734Z,101184.67
2018-07-28T22:34:25.693Z,101187.30
2018-07-28T22:36:54.572Z,101188.31
2018-07-28T22:39:23.713Z,101188.77
2018-07-28T22:41:52.535Z,101189.00
2018-07-28T22:44:21.600Z,101185.26
2018-07-28T22:46:50.468Z,101184.57
2018-07-28T22:49:19.637Z,101193.36
2018-07-28T22:51:48.387Z,101196.19
2018-07-28T22:54:17.899Z,101192.38
2018-07-28T22:56:46.693Z,101194.41
2018-07-28T22:59:16.607Z,101195.45
2018-07-28T23:01:45.650Z,101198.16
2018-07-28T23:04:14.455Z,101193.48
2018-07-28T23:06:43.199Z,101194.17
2018-07-28T23:09:16.095Z,101185.34
2018-07-28T23:11:44.893Z,101194.83
2018-07-28T23:14:13.772Z,101193.32
2018-07-28T23:16:42.503Z,101198.22
2018-07-28T23:19:11.551Z,101200.82
2018-07-28T23:21:40.662Z,101197.70
2018-07-28T23:24:10.685Z,101205.58
2018-07-28T23:26:39.947Z,101209.20
2018-07-28T23:29:08.822Z,101206.70
2018-07-28T23:31:38.204Z,101203.34
2018-07-28T23:34:07.646Z,101210.63
2018-07-28T23:36:36.525Z,101208.56
2018-07-28T23:39:07.813Z,101209.55
2018-07-28T23:41:36.707Z,101211.60
2018-07-28T23:44:05.824Z,101212.72
2018-07-28T23:46:35.654Z,101218.83
2018-07-28T23:49:05.579Z,101218.11
2018-07-28T23:51:34.507Z,101212.73
2018-07-28T23:54:03.559Z,101208.28
2018-07-28T23:56:32.281Z,101210.30
2018-07-28T23:59:01.120Z,101219.96
